Time,TemperatureF,DewpointF,PressureIn,WindDirection,WindDirectionDegrees,WindSpeedMPH,WindSpeedGustMPH,Humidity,HourlyPrecipIn,Conditions,Clouds,dailyrainin,SoftwareType,DateUTC
2013-02-22 00:00:00,44.2,35.0,29.93,East,86,1.0,1.0,70,0.00,,,0.00,Wunderground v.1.15,2013-02-22 07:00:00,
2013-02-22 00:05:00,44.6,34.3,29.93,ESE,107,3.0,6.0,67,0.00,,,0.00,Wunderground v.1.15,2013-02-22 07:05:00,
2013-02-22 00:10:00,44.5,34.2,29.93,ESE,118,4.0,4.0,67,0.00,,,0.00,Wunderground v.1.15,2013-02-22 07:10:00,
2013-02-22 00:15:00,44.3,34.4,29.93,NE,45,4.0,4.0,68,0.00,,,0.00,Wunderground v.1.15,2013-02-22 07:15:00,
2013-02-22 00:25:00,43.9,34.7,29.94,East,95,4.0,4.0,70,0.00,,,0.00,Wunderground v.1.15,2013-02-22 07:25:00,
2013-02-22 00:30:00,43.7,34.9,29.94,NE,51,4.0,4.0,71,0.00,,,0.00,Wunderground v.1.15,2013-02-22 07:30:00,
2013-02-22 00:35:00,43.6,34.8,29.94,NE,37,3.0,4.0,71,0.00,,,0.00,Wunderground v.1.15,2013-02-22 07:35:00,
2013-02-22 00:40:00,43.3,34.9,29.93,ESE,105,4.0,5.0,72,0.00,,,0.00,Wunderground v.1.15,2013-02-22 07:40:00,
2013-02-22 00:45:00,43.3,34.5,29.93,East,83,5.0,6.0,71,0.00,,,0.00,Wunderground v.1.15,2013-02-22 07:45:00,
2013-02-22 00:55:00,43.3,34.5,29.93,ENE,76,5.0,5.0,71,0.00,,,0.00,Wunderground v.1.15,2013-02-22 07:55:00,
2013-02-22 01:00:00,43.3,34.2,29.93,East,91,4.0,4.0,70,0.00,,,0.00,Wunderground v.1.15,2013-02-22 08:00:00,
2013-02-22 01:05:00,43.3,34.2,29.93,ENE,72,3.0,4.0,70,0.00,,,0.00,Wunderground v.1.15,2013-02-22 08:05:00,
2013-02-22 01:10:00,43.0,33.9,29.93,ENE,74,1.0,1.0,70,0.00,,,0.00,Wunderground v.1.15,2013-02-22 08:10:00,
2013-02-22 01:15:00,42.7,34.3,29.93,ENE,68,0.0,1.0,72,0.00,,,0.00,Wunderground v.1.15,2013-02-22 08:15:00,
2013-02-22 01:25:00,41.5,34.2,29.93,ENE,68,0.0,0.0,75,0.00,,,0.00,Wunderground v.1.15,2013-02-22 08:25:00,
2013-02-22 01:30:00,41.2,34.2,29.93,ENE,71,0.0,0.0,76,0.00,,,0.00,Wunderground v.1.15,2013-02-22 08:30:00,
2013-02-22 01:35:00,40.7,33.7,29.93,ENE,71,0.0,0.0,76,0.00,,,0.00,Wunderground v.1.15,2013-02-22 08:35:00,
2013-02-22 01:40:00,40.0,33.7,29.93,ENE,70,0.0,0.0,78,0.00,,,0.00,Wunderground v.1.15,2013-02-22 08:40:00,
2013-02-22 01:50:00,38.9,33.9,29.93,ENE,70,0.0,0.0,82,0.00,,,0.00,Wunderground v.1.15,2013-02-22 08:50:00,
2013-02-22 01:55:00,38.7,33.7,29.93,ENE,70,0.0,0.0,82,0.00,,,0.00,Wunderground v.1.15,2013-02-22 08:55:00,
2013-02-22 02:00:00,38.5,34.1,29.93,NW,308,0.0,0.0,84,0.00,,,0.00,Wunderground v.1.15,2013-02-22 09:00:00,
2013-02-22 02:05:00,38.1,33.7,29.93,NW,308,0.0,0.0,84,0.00,,,0.00,Wunderground v.1.15,2013-02-22 09:05:00,
2013-02-22 02:15:00,38.0,34.2,29.93,NW,308,0.0,0.0,86,0.00,,,0.00,Wunderground v.1.15,2013-02-22 09:15:00,
2013-02-22 02:20:00,38.0,34.2,29.93,NW,308,0.0,0.0,86,0.00,,,0.00,Wunderground v.1.15,2013-02-22 09:20:00,
2013-02-22 02:25:00,38.1,34.6,29.93,NW,308,0.0,0.0,87,0.00,,,0.00,Wunderground v.1.15,2013-02-22 09:25:00,
2013-02-22 02:30:00,38.3,34.5,29.94,NW,308,0.0,0.0,86,0.00,,,0.00,Wunderground v.1.15,2013-02-22 09:30:00,
2013-02-22 02:35:00,38.4,34.9,29.94,NE,37,0.0,0.0,87,0.00,,,0.00,Wunderground v.1.15,2013-02-22 09:35:00,
2013-02-22 02:45:00,38.9,34.8,29.93,NE,37,0.0,0.0,85,0.00,,,0.00,Wunderground v.1.15,2013-02-22 09:45:00,
2013-02-22 02:50:00,39.1,35.0,29.94,South,181,0.0,0.0,85,0.00,,,0.00,Wunderground v.1.15,2013-02-22 09:50:00,
2013-02-22 02:55:00,38.9,34.8,29.94,South,181,0.0,0.0,85,0.00,,,0.00,Wunderground v.1.15,2013-02-22 09:55:00,
2013-02-22 03:05:00,39.0,34.9,29.93,West,277,0.0,0.0,85,0.00,,,0.00,Wunderground v.1.15,2013-02-22 10:05:00,
2013-02-22 03:10:00,38.9,34.8,29.93,West,277,0.0,0.0,85,0.00,,,0.00,Wunderground v.1.15,2013-02-22 10:10:00,
2013-02-22 03:15:00,38.7,34.6,29.93,West,276,0.0,0.0,85,0.00,,,0.00,Wunderground v.1.15,2013-02-22 10:15:00,
2013-02-22 03:20:00,38.4,34.6,29.93,West,277,0.0,0.0,86,0.00,,,0.00,Wunderground v.1.15,2013-02-22 10:20:00,
2013-02-22 03:30:00,37.9,34.4,29.93,NE,37,0.0,0.0,87,0.00,,,0.00,Wunderground v.1.15,2013-02-22 10:30:00,
2013-02-22 03:35:00,37.8,34.6,29.93,ESE,120,0.0,0.0,88,0.00,,,0.00,Wunderground v.1.15,2013-02-22 10:35:00,
2013-02-22 03:40:00,37.6,34.4,29.93,SSE,147,0.0,0.0,88,0.00,,,0.00,Wunderground v.1.15,2013-02-22 10:40:00,
2013-02-22 03:45:00,37.4,34.2,29.93,SE,146,0.0,0.0,88,0.00,,,0.00,Wunderground v.1.15,2013-02-22 10:45:00,
2013-02-22 03:55:00,37.0,34.1,29.94,SE,146,0.0,0.0,89,0.00,,,0.00,Wunderground v.1.15,2013-02-22 10:55:00,
2013-02-22 04:00:00,36.9,34.0,29.94,SE,146,0.0,0.0,89,0.00,,,0.00,Wunderground v.1.15,2013-02-22 11:00:00,
2013-02-22 04:10:00,36.4,33.7,29.94,SE,143,0.0,0.0,90,0.00,,,0.00,Wunderground v.1.15,2013-02-22 11:10:00,
2013-02-22 04:15:00,36.2,33.5,29.94,SE,143,0.0,0.0,90,0.00,,,0.00,Wunderground v.1.15,2013-02-22 11:15:00,
2013-02-22 04:25:00,35.7,33.1,29.94,SSE,151,0.0,0.0,90,0.00,,,0.00,Wunderground v.1.15,2013-02-22 11:25:00,
2013-02-22 04:30:00,35.3,32.9,29.94,SSE,150,0.0,0.0,91,0.00,,,0.00,Wunderground v.1.15,2013-02-22 11:30:00,
2013-02-22 04:35:00,35.0,32.6,29.94,SSE,151,0.0,0.0,91,0.00,,,0.00,Wunderground v.1.15,2013-02-22 11:35:00,
2013-02-22 04:40:00,34.8,32.7,29.94,SSE,150,0.0,0.0,92,0.00,,,0.00,Wunderground v.1.15,2013-02-22 11:40:00,
2013-02-22 04:45:00,34.6,32.5,29.94,SSE,150,0.0,0.0,92,0.00,,,0.00,Wunderground v.1.15,2013-02-22 11:45:00,
2013-02-22 04:55:00,34.5,32.7,29.95,ENE,75,0.0,0.0,93,0.00,,,0.00,Wunderground v.1.15,2013-02-22 11:55:00,
2013-02-22 05:00:00,34.6,32.8,29.95,ENE,75,0.0,0.0,93,0.00,,,0.00,Wunderground v.1.15,2013-02-22 12:00:00,
2013-02-22 05:05:00,34.9,33.3,29.95,ENE,75,0.0,0.0,94,0.00,,,0.00,Wunderground v.1.15,2013-02-22 12:05:00,
2013-02-22 05:10:00,35.3,33.7,29.95,ESE,103,0.0,0.0,94,0.00,,,0.00,Wunderground v.1.15,2013-02-22 12:10:00,
2013-02-22 05:15:00,35.5,33.9,29.96,ESE,103,0.0,0.0,94,0.00,,,0.00,Wunderground v.1.15,2013-02-22 12:15:00,
2013-02-22 05:25:00,35.1,33.3,29.96,ESE,103,0.0,0.0,93,0.00,,,0.00,Wunderground v.1.15,2013-02-22 12:25:00,
2013-02-22 05:30:00,34.7,32.9,29.96,ESE,103,0.0,0.0,93,0.00,,,0.00,Wunderground v.1.15,2013-02-22 12:30:00,
2013-02-22 05:35:00,34.4,32.6,29.96,ESE,103,0.0,0.0,93,0.00,,,0.00,Wunderground v.1.15,2013-02-22 12:35:00,
2013-02-22 05:45:00,34.5,33.0,29.96,ESE,108,0.0,0.0,94,0.00,,,0.00,Wunderground v.1.15,2013-02-22 12:45:00,
2013-02-22 05:50:00,34.5,33.0,29.97,ESE,109,0.0,0.0,94,0.00,,,0.00,Wunderground v.1.15,2013-02-22 12:50:00,
2013-02-22 05:55:00,34.3,32.8,29.97,ESE,109,0.0,0.0,94,0.00,,,0.00,Wunderground v.1.15,2013-02-22 12:55:00,
2013-02-22 06:00:00,33.9,32.1,29.97,ESE,109,0.0,0.0,93,0.00,,,0.00,Wunderground v.1.15,2013-02-22 13:00:00,
2013-02-22 06:05:00,33.5,31.7,29.97,ESE,108,0.0,0.0,93,0.00,,,0.00,Wunderground v.1.15,2013-02-22 13:05:00,
2013-02-22 06:15:00,33.6,32.1,29.98,ESE,109,0.0,0.0,94,0.00,,,0.00,Wunderground v.1.15,2013-02-22 13:15:00,
2013-02-22 06:20:00,33.6,32.1,29.98,ESE,108,0.0,0.0,94,0.00,,,0.00,Wunderground v.1.15,2013-02-22 13:20:00,
2013-02-22 06:30:00,33.7,32.2,29.99,ESE,109,0.0,0.0,94,0.00,,,0.00,Wunderground v.1.15,2013-02-22 13:30:00,
2013-02-22 06:35:00,33.5,32.0,29.99,ESE,108,0.0,0.0,94,0.00,,,0.00,Wunderground v.1.15,2013-02-22 13:35:00,
2013-02-22 06:45:00,33.3,32.0,29.99,ESE,108,0.0,0.0,95,0.00,,,0.00,Wunderground v.1.15,2013-02-22 13:45:00,
2013-02-22 06:50:00,33.1,31.6,29.99,ESE,109,0.0,0.0,94,0.00,,,0.00,Wunderground v.1.15,2013-02-22 13:50:00,
2013-02-22 06:55:00,33.0,31.7,30.00,ESE,109,0.0,0.0,95,0.00,,,0.00,Wunderground v.1.15,2013-02-22 13:55:00,
2013-02-22 07:05:00,33.2,31.9,30.00,ESE,109,0.0,0.0,95,0.00,,,0.00,Wunderground v.1.15,2013-02-22 14:05:00,
2013-02-22 07:15:00,33.7,32.7,30.01,ESE,109,0.0,0.0,96,0.00,,,0.00,Wunderground v.1.15,2013-02-22 14:15:00,
2013-02-22 07:20:00,34.0,33.0,30.01,ESE,109,0.0,0.0,96,0.00,,,0.00,Wunderground v.1.15,2013-02-22 14:20:00,
2013-02-22 07:25:00,34.5,33.5,30.01,ESE,108,0.0,0.0,96,0.00,,,0.00,Wunderground v.1.15,2013-02-22 14:25:00,
2013-02-22 07:35:00,35.2,34.2,30.02,ESE,109,0.0,0.0,96,0.00,,,0.00,Wunderground v.1.15,2013-02-22 14:35:00,
2013-02-22 07:40:00,35.6,34.6,30.02,ESE,109,0.0,0.0,96,0.00,,,0.00,Wunderground v.1.15,2013-02-22 14:40:00,
2013-02-22 07:45:00,36.0,35.0,30.03,ESE,109,0.0,0.0,96,0.00,,,0.00,Wunderground v.1.15,2013-02-22 14:45:00,
2013-02-22 07:50:00,36.3,35.3,30.03,ESE,108,0.0,0.0,96,0.00,,,0.00,Wunderground v.1.15,2013-02-22 14:50:00,
2013-02-22 07:55:00,36.7,35.7,30.03,ESE,109,0.0,0.0,96,0.00,,,0.00,Wunderground v.1.15,2013-02-22 14:55:00,
2013-02-22 08:05:00,37.4,36.4,30.04,ESE,109,0.0,0.0,96,0.00,,,0.00,Wunderground v.1.15,2013-02-22 15:05:00,
2013-02-22 08:10:00,37.8,36.8,30.04,ESE,109,0.0,0.0,96,0.00,,,0.00,Wunderground v.1.15,2013-02-22 15:10:00,
2013-02-22 08:20:00,38.3,37.0,30.05,ESE,109,0.0,0.0,95,0.00,,,0.00,Wunderground v.1.15,2013-02-22 15:20:00,
2013-02-22 08:25:00,38.6,37.3,30.05,ESE,109,0.0,0.0,95,0.00,,,0.00,Wunderground v.1.15,2013-02-22 15:25:00,
2013-02-22 08:35:00,39.3,37.7,30.05,ESE,109,0.0,0.0,94,0.00,,,0.00,Wunderground v.1.15,2013-02-22 15:35:00,
2013-02-22 08:40:00,39.7,37.8,30.05,ESE,109,0.0,0.0,93,0.00,,,0.00,Wunderground v.1.15,2013-02-22 15:40:00,
2013-02-22 08:45:00,40.1,38.0,30.05,ESE,109,0.0,0.0,92,0.00,,,0.00,Wunderground v.1.15,2013-02-22 15:45:00,
2013-02-22 08:50:00,40.4,37.7,30.05,SE,136,0.0,0.0,90,0.00,,,0.00,Wunderground v.1.15,2013-02-22 15:50:00,
2013-02-22 08:55:00,40.7,37.7,30.05,South,173,0.0,0.0,89,0.00,,,0.00,Wunderground v.1.15,2013-02-22 15:55:00,
2013-02-22 09:05:00,41.3,37.1,30.06,East,79,1.0,2.0,85,0.00,,,0.00,Wunderground v.1.15,2013-02-22 16:05:00,
2013-02-22 09:10:00,41.4,36.6,30.06,ENE,68,1.0,2.0,83,0.00,,,0.00,Wunderground v.1.15,2013-02-22 16:10:00,
2013-02-22 09:15:00,41.5,36.7,30.05,ESE,108,1.0,2.0,83,0.00,,,0.00,Wunderground v.1.15,2013-02-22 16:15:00,
2013-02-22 09:20:00,41.7,36.6,30.06,SSE,167,1.0,1.0,82,0.00,,,0.00,Wunderground v.1.15,2013-02-22 16:20:00,
2013-02-22 09:30:00,42.2,36.8,30.06,SSE,157,2.0,4.0,81,0.00,,,0.00,Wunderground v.1.15,2013-02-22 16:30:00,
2013-02-22 09:35:00,42.5,36.8,30.06,SE,145,2.0,4.0,80,0.00,,,0.00,Wunderground v.1.15,2013-02-22 16:35:00,
2013-02-22 09:40:00,42.7,37.0,30.06,WSW,243,2.0,2.0,80,0.00,,,0.00,Wunderground v.1.15,2013-02-22 16:40:00,
2013-02-22 09:45:00,43.2,36.8,30.06,WNW,300,1.0,2.0,78,0.00,,,0.00,Wunderground v.1.15,2013-02-22 16:45:00,
2013-02-22 09:50:00,43.9,37.5,30.06,SSE,167,0.0,2.0,78,0.00,,,0.00,Wunderground v.1.15,2013-02-22 16:50:00,
2013-02-22 09:55:00,45.0,37.6,30.06,WNW,289,1.0,2.0,75,0.00,,,0.00,Wunderground v.1.15,2013-02-22 16:55:00,
2013-02-22 10:05:00,44.9,37.5,30.06,WNW,301,1.0,1.0,75,0.00,,,0.00,Wunderground v.1.15,2013-02-22 17:05:00,
2013-02-22 10:10:00,45.1,36.6,30.07,ESE,109,1.0,1.0,72,0.00,,,0.00,Wunderground v.1.15,2013-02-22 17:10:00,
2013-02-22 10:15:00,45.4,37.9,30.07,SE,127,1.0,1.0,75,0.00,,,0.00,Wunderground v.1.15,2013-02-22 17:15:00,
2013-02-22 10:20:00,46.4,37.9,30.07,WNW,294,1.0,1.0,72,0.00,,,0.00,Wunderground v.1.15,2013-02-22 17:20:00,
2013-02-22 10:25:00,47.1,37.4,30.07,South,188,1.0,1.0,69,0.00,,,0.00,Wunderground v.1.15,2013-02-22 17:25:00,
2013-02-22 10:35:00,47.6,37.9,30.07,SE,141,1.0,2.0,69,0.00,,,0.00,Wunderground v.1.15,2013-02-22 17:35:00,
2013-02-22 10:40:00,48.5,37.7,30.07,South,187,1.0,1.0,66,0.00,,,0.00,Wunderground v.1.15,2013-02-22 17:40:00,
2013-02-22 10:45:00,48.9,37.6,30.07,SSW,201,1.0,1.0,65,0.00,,,0.00,Wunderground v.1.15,2013-02-22 17:45:00,
2013-02-22 10:55:00,49.4,38.1,30.07,SSE,158,1.0,1.0,65,0.00,,,0.00,Wunderground v.1.15,2013-02-22 17:55:00,
2013-02-22 11:00:00,49.9,38.2,30.06,South,172,0.0,0.0,64,0.00,,,0.00,Wunderground v.1.15,2013-02-22 18:00:00,
2013-02-22 11:05:00,50.2,38.5,30.06,South,183,1.0,2.0,64,0.00,,,0.00,Wunderground v.1.15,2013-02-22 18:05:00,
2013-02-22 11:10:00,50.3,37.4,30.06,ENE,75,1.0,1.0,61,0.00,,,0.00,Wunderground v.1.15,2013-02-22 18:10:00,
2013-02-22 11:15:00,49.9,37.4,30.06,SSW,198,1.0,1.0,62,0.00,,,0.00,Wunderground v.1.15,2013-02-22 18:15:00,
2013-02-22 11:25:00,49.8,37.7,30.06,SSE,159,1.0,1.0,63,0.00,,,0.00,Wunderground v.1.15,2013-02-22 18:25:00,
2013-02-22 11:30:00,50.1,36.7,30.06,West,264,2.0,3.0,60,0.00,,,0.00,Wunderground v.1.15,2013-02-22 18:30:00,
2013-02-22 11:35:00,49.9,37.0,30.06,West,259,2.0,3.0,61,0.00,,,0.00,Wunderground v.1.15,2013-02-22 18:35:00,
2013-02-22 11:40:00,49.6,36.3,30.06,ESE,107,2.0,2.0,60,0.00,,,0.00,Wunderground v.1.15,2013-02-22 18:40:00,
2013-02-22 11:50:00,51.0,37.2,30.06,SSE,165,1.0,3.0,59,0.00,,,0.00,Wunderground v.1.15,2013-02-22 18:50:00,
2013-02-22 11:55:00,50.3,37.4,30.05,WNW,295,2.0,3.0,61,0.00,,,0.00,Wunderground v.1.15,2013-02-22 18:55:00,
2013-02-22 12:00:00,50.4,37.0,30.05,NE,34,2.0,2.0,60,0.00,,,0.00,Wunderground v.1.15,2013-02-22 19:00:00,
2013-02-22 12:05:00,50.7,37.3,30.05,WSW,249,2.0,3.0,60,0.00,,,0.00,Wunderground v.1.15,2013-02-22 19:05:00,
2013-02-22 12:10:00,50.6,35.9,30.05,NW,316,3.0,3.0,57,0.00,,,0.00,Wunderground v.1.15,2013-02-22 19:10:00,
2013-02-22 12:20:00,50.9,35.3,30.04,WSW,237,3.0,3.0,55,0.00,,,0.00,Wunderground v.1.15,2013-02-22 19:20:00,
2013-02-22 12:25:00,51.4,35.8,30.04,West,264,3.0,4.0,55,0.00,,,0.00,Wunderground v.1.15,2013-02-22 19:25:00,
2013-02-22 12:30:00,51.4,34.8,30.04,West,260,2.0,2.0,53,0.00,,,0.00,Wunderground v.1.15,2013-02-22 19:30:00,
2013-02-22 12:35:00,51.7,35.1,30.03,WNW,302,3.0,3.0,53,0.00,,,0.00,Wunderground v.1.15,2013-02-22 19:35:00,
2013-02-22 12:45:00,52.7,36.0,30.03,WNW,290,3.0,4.0,53,0.00,,,0.00,Wunderground v.1.15,2013-02-22 19:45:00,
2013-02-22 12:50:00,53.0,34.3,30.03,WSW,237,3.0,4.0,49,0.00,,,0.00,Wunderground v.1.15,2013-02-22 19:50:00,
2013-02-22 12:55:00,53.2,35.0,30.03,West,266,3.0,4.0,50,0.00,,,0.00,Wunderground v.1.15,2013-02-22 19:55:00,
2013-02-22 13:00:00,53.7,34.5,30.02,South,183,4.0,5.0,48,0.00,,,0.00,Wunderground v.1.15,2013-02-22 20:00:00,
2013-02-22 13:05:00,54.0,33.7,30.02,SSW,208,5.0,5.0,46,0.00,,,0.00,Wunderground v.1.15,2013-02-22 20:05:00,
2013-02-22 13:15:00,53.9,34.1,30.02,WSW,245,4.0,5.0,47,0.00,,,0.00,Wunderground v.1.15,2013-02-22 20:15:00,
2013-02-22 13:20:00,54.5,35.2,30.01,WNW,284,4.0,4.0,48,0.00,,,0.00,Wunderground v.1.15,2013-02-22 20:20:00,
2013-02-22 13:25:00,54.2,32.7,30.01,NW,312,5.0,5.0,44,0.00,,,0.00,Wunderground v.1.15,2013-02-22 20:25:00,
2013-02-22 13:30:00,53.9,33.0,30.01,SSE,165,5.0,5.0,45,0.00,,,0.00,Wunderground v.1.15,2013-02-22 20:30:00,
2013-02-22 13:35:00,53.9,33.0,30.01,SW,226,5.0,8.0,45,0.00,,,0.00,Wunderground v.1.15,2013-02-22 20:35:00,
2013-02-22 13:45:00,53.9,32.5,30.01,WNW,301,5.0,5.0,44,0.00,,,0.00,Wunderground v.1.15,2013-02-22 20:45:00,
2013-02-22 13:50:00,53.7,32.3,30.00,NW,315,5.0,6.0,44,0.00,,,0.00,Wunderground v.1.15,2013-02-22 20:50:00,
2013-02-22 13:55:00,53.9,33.0,30.01,WNW,290,5.0,6.0,45,0.00,,,0.00,Wunderground v.1.15,2013-02-22 20:55:00,
2013-02-22 14:00:00,54.3,33.9,30.00,West,270,5.0,10.0,46,0.00,,,0.00,Wunderground v.1.15,2013-02-22 21:00:00,
2013-02-22 14:10:00,53.9,33.0,30.00,WNW,295,7.0,9.0,45,0.00,,,0.00,Wunderground v.1.15,2013-02-22 21:10:00,
2013-02-22 14:15:00,53.8,33.5,30.00,SW,221,7.0,9.0,46,0.00,,,0.00,Wunderground v.1.15,2013-02-22 21:15:00,
2013-02-22 14:20:00,54.1,33.2,30.00,West,274,7.0,10.0,45,0.00,,,0.00,Wunderground v.1.15,2013-02-22 21:20:00,
2013-02-22 14:25:00,54.3,32.8,30.00,West,271,7.0,10.0,44,0.00,,,0.00,Wunderground v.1.15,2013-02-22 21:25:00,
2013-02-22 14:30:00,54.1,33.2,30.00,West,269,6.0,6.0,45,0.00,,,0.00,Wunderground v.1.15,2013-02-22 21:30:00,
2013-02-22 14:40:00,54.3,33.4,30.00,WNW,296,5.0,8.0,45,0.00,,,0.00,Wunderground v.1.15,2013-02-22 21:40:00,
2013-02-22 14:45:00,54.4,34.6,30.00,WNW,301,6.0,8.0,47,0.00,,,0.00,Wunderground v.1.15,2013-02-22 21:45:00,
2013-02-22 14:50:00,55.1,33.0,30.00,WNW,290,5.0,15.0,43,0.00,,,0.00,Wunderground v.1.15,2013-02-22 21:50:00,
2013-02-22 14:55:00,54.3,32.3,30.00,WSW,253,7.0,15.0,43,0.00,,,0.00,Wunderground v.1.15,2013-02-22 21:55:00,
2013-02-22 15:05:00,54.2,32.2,30.00,WNW,282,7.0,8.0,43,0.00,,,0.00,Wunderground v.1.15,2013-02-22 22:05:00,
2013-02-22 15:10:00,54.3,30.5,30.00,WNW,287,8.0,9.0,40,0.00,,,0.00,Wunderground v.1.15,2013-02-22 22:10:00,
2013-02-22 15:15:00,54.7,30.2,30.00,WNW,296,7.0,9.0,39,0.00,,,0.00,Wunderground v.1.15,2013-02-22 22:15:00,
2013-02-22 15:25:00,54.5,30.6,30.00,WSW,248,8.0,12.0,40,0.00,,,0.00,Wunderground v.1.15,2013-02-22 22:25:00,
2013-02-22 15:30:00,54.3,31.1,30.00,WNW,287,8.0,8.0,41,0.00,,,0.00,Wunderground v.1.15,2013-02-22 22:30:00,
2013-02-22 15:35:00,54.5,30.0,30.00,WSW,255,8.0,8.0,39,0.00,,,0.00,Wunderground v.1.15,2013-02-22 22:35:00,
2013-02-22 15:40:00,54.7,32.0,30.00,West,262,7.0,16.0,42,0.00,,,0.00,Wunderground v.1.15,2013-02-22 22:40:00,
2013-02-22 15:50:00,54.5,30.6,30.00,West,278,8.0,8.0,40,0.00,,,0.00,Wunderground v.1.15,2013-02-22 22:50:00,
2013-02-22 15:55:00,54.7,30.8,30.00,West,281,7.0,8.0,40,0.00,,,0.00,Wunderground v.1.15,2013-02-22 22:55:00,
2013-02-22 16:00:00,54.6,30.1,30.00,West,261,6.0,11.0,39,0.00,,,0.00,Wunderground v.1.15,2013-02-22 23:00:00,
2013-02-22 16:10:00,54.4,30.6,30.00,WNW,288,8.0,9.0,40,0.00,,,0.00,Wunderground v.1.15,2013-02-22 23:10:00,
2013-02-22 16:15:00,54.2,30.4,29.99,NW,309,8.0,9.0,40,0.00,,,0.00,Wunderground v.1.15,2013-02-22 23:15:00,
2013-02-22 16:25:00,54.1,30.3,29.99,West,267,8.0,8.0,40,0.00,,,0.00,Wunderground v.1.15,2013-02-22 23:25:00,
2013-02-22 16:30:00,53.8,30.0,29.99,West,280,8.0,8.0,40,0.00,,,0.00,Wunderground v.1.15,2013-02-22 23:30:00,
2013-02-22 16:35:00,53.7,30.5,29.99,West,269,8.0,8.0,41,0.00,,,0.00,Wunderground v.1.15,2013-02-22 23:35:00,
2013-02-22 16:45:00,53.9,30.1,29.99,WNW,297,7.0,9.0,40,0.00,,,0.00,Wunderground v.1.15,2013-02-22 23:45:00,
2013-02-22 16:55:00,54.1,30.3,29.99,WSW,247,6.0,7.0,40,0.00,,,0.00,Wunderground v.1.15,2013-02-22 23:55:00,
2013-02-22 17:00:00,53.9,30.1,29.99,WNW,295,6.0,7.0,40,0.00,,,0.00,Wunderground v.1.15,2013-02-23 00:00:00,
2013-02-22 17:05:00,53.8,30.0,29.99,West,273,6.0,7.0,40,0.00,,,0.00,Wunderground v.1.15,2013-02-23 00:05:00,
2013-02-22 17:10:00,53.9,30.7,29.99,WNW,295,5.0,5.0,41,0.00,,,0.00,Wunderground v.1.15,2013-02-23 00:10:00,
2013-02-22 17:15:00,54.0,30.8,29.99,WNW,282,5.0,5.0,41,0.00,,,0.00,Wunderground v.1.15,2013-02-23 00:15:00,
2013-02-22 17:25:00,53.6,28.6,29.99,WNW,291,5.0,6.0,38,0.00,,,0.00,Wunderground v.1.15,2013-02-23 00:25:00,
2013-02-22 17:30:00,53.3,28.9,29.99,WNW,283,6.0,6.0,39,0.00,,,0.00,Wunderground v.1.15,2013-02-23 00:30:00,
2013-02-22 17:35:00,53.1,28.1,30.00,WNW,285,6.0,6.0,38,0.00,,,0.00,Wunderground v.1.15,2013-02-23 00:35:00,
2013-02-22 17:45:00,52.8,30.9,29.99,West,270,5.0,7.0,43,0.00,,,0.00,Wunderground v.1.15,2013-02-23 00:45:00,
2013-02-22 17:50:00,52.4,31.7,30.00,West,269,6.0,6.0,45,0.00,,,0.00,Wunderground v.1.15,2013-02-23 00:50:00,
2013-02-22 17:55:00,52.0,31.3,29.99,West,274,6.0,6.0,45,0.00,,,0.00,Wunderground v.1.15,2013-02-23 00:55:00,
2013-02-22 18:00:00,51.6,31.5,30.00,West,274,6.0,7.0,46,0.00,,,0.00,Wunderground v.1.15,2013-02-23 01:00:00,
2013-02-22 18:05:00,51.2,31.1,30.00,WSW,250,6.0,7.0,46,0.00,,,0.00,Wunderground v.1.15,2013-02-23 01:05:00,
2013-02-22 18:15:00,50.3,30.3,30.00,WNW,283,5.0,6.0,46,0.00,,,0.00,Wunderground v.1.15,2013-02-23 01:15:00,
2013-02-22 18:20:00,49.9,30.5,30.00,West,266,5.0,5.0,47,0.00,,,0.00,Wunderground v.1.15,2013-02-23 01:20:00,
2013-02-22 18:25:00,49.6,30.2,30.01,West,280,4.0,5.0,47,0.00,,,0.00,Wunderground v.1.15,2013-02-23 01:25:00,
2013-02-22 18:30:00,49.4,28.9,30.00,WNW,285,5.0,5.0,45,0.00,,,0.00,Wunderground v.1.15,2013-02-23 01:30:00,
2013-02-22 18:35:00,49.3,29.4,30.01,West,269,5.0,5.0,46,0.00,,,0.00,Wunderground v.1.15,2013-02-23 01:35:00,
2013-02-22 18:40:00,49.1,28.7,30.01,WNW,296,5.0,5.0,45,0.00,,,0.00,Wunderground v.1.15,2013-02-23 01:40:00,
2013-02-22 18:50:00,48.9,27.4,30.01,WNW,288,5.0,7.0,43,0.00,,,0.00,Wunderground v.1.15,2013-02-23 01:50:00,
2013-02-22 18:55:00,48.9,27.4,30.01,West,266,6.0,7.0,43,0.00,,,0.00,Wunderground v.1.15,2013-02-23 01:55:00,
2013-02-22 19:05:00,48.6,26.5,30.02,NW,309,5.0,6.0,42,0.00,,,0.00,Wunderground v.1.15,2013-02-23 02:05:00,
2013-02-22 19:10:00,48.5,27.0,30.02,WNW,288,5.0,6.0,43,0.00,,,0.00,Wunderground v.1.15,2013-02-23 02:10:00,
2013-02-22 19:20:00,48.4,26.9,30.03,WSW,253,4.0,4.0,43,0.00,,,0.00,Wunderground v.1.15,2013-02-23 02:20:00,
2013-02-22 19:25:00,48.2,25.6,30.03,SW,231,3.0,4.0,41,0.00,,,0.00,Wunderground v.1.15,2013-02-23 02:25:00,
2013-02-22 19:30:00,47.7,26.3,30.03,SW,214,2.0,2.0,43,0.00,,,0.00,Wunderground v.1.15,2013-02-23 02:30:00,
2013-02-22 19:40:00,46.5,26.3,30.03,SSW,210,1.0,1.0,45,0.00,,,0.00,Wunderground v.1.15,2013-02-23 02:40:00,
2013-02-22 19:50:00,45.9,26.3,30.03,SSW,200,1.0,1.0,46,0.00,,,0.00,Wunderground v.1.15,2013-02-23 02:50:00,
2013-02-22 19:55:00,45.4,26.3,30.03,SSW,193,0.0,1.0,47,0.00,,,0.00,Wunderground v.1.15,2013-02-23 02:55:00,
2013-02-22 20:00:00,45.0,27.0,30.03,South,170,0.0,0.0,49,0.00,,,0.00,Wunderground v.1.15,2013-02-23 03:00:00,
2013-02-22 20:10:00,44.3,27.8,30.04,South,170,0.0,0.0,52,0.00,,,0.00,Wunderground v.1.15,2013-02-23 03:10:00,
2013-02-22 20:15:00,43.8,27.8,30.04,South,170,0.0,0.0,53,0.00,,,0.00,Wunderground v.1.15,2013-02-23 03:15:00,
2013-02-22 20:20:00,43.5,27.5,30.04,SE,144,0.0,0.0,53,0.00,,,0.00,Wunderground v.1.15,2013-02-23 03:20:00,
2013-02-22 20:30:00,43.0,28.8,30.04,ESE,113,0.0,0.0,57,0.00,,,0.00,Wunderground v.1.15,2013-02-23 03:30:00,
2013-02-22 20:40:00,41.7,28.8,30.04,NE,55,0.0,0.0,60,0.00,,,0.00,Wunderground v.1.15,2013-02-23 03:40:00,
2013-02-22 20:50:00,41.1,29.5,30.04,NE,55,0.0,0.0,63,0.00,,,0.00,Wunderground v.1.15,2013-02-23 03:50:00,
2013-02-22 20:55:00,40.7,29.5,30.05,NE,56,0.0,0.0,64,0.00,,,0.00,Wunderground v.1.15,2013-02-23 03:55:00,
2013-02-22 21:00:00,40.2,30.1,30.05,NE,56,0.0,0.0,67,0.00,,,0.00,Wunderground v.1.15,2013-02-23 04:00:00,
2013-02-22 21:05:00,39.8,30.1,30.05,NE,55,0.0,0.0,68,0.00,,,0.00,Wunderground v.1.15,2013-02-23 04:05:00,
2013-02-22 21:15:00,39.5,30.9,30.06,NE,56,0.0,0.0,71,0.00,,,0.00,Wunderground v.1.15,2013-02-23 04:15:00,
2013-02-22 21:20:00,39.0,30.7,30.06,NE,55,0.0,0.0,72,0.00,,,0.00,Wunderground v.1.15,2013-02-23 04:20:00,
2013-02-22 21:25:00,38.4,30.5,30.06,NE,55,0.0,0.0,73,0.00,,,0.00,Wunderground v.1.15,2013-02-23 04:25:00,
2013-02-22 21:30:00,37.9,30.7,30.06,NE,55,0.0,0.0,75,0.00,,,0.00,Wunderground v.1.15,2013-02-23 04:30:00,
2013-02-22 21:40:00,37.4,30.8,30.06,NE,55,0.0,0.0,77,0.00,,,0.00,Wunderground v.1.15,2013-02-23 04:40:00,
2013-02-22 21:45:00,36.9,30.0,30.06,NE,56,0.0,0.0,76,0.00,,,0.00,Wunderground v.1.15,2013-02-23 04:45:00,
2013-02-22 21:50:00,36.7,30.8,30.06,NE,55,0.0,0.0,79,0.00,,,0.00,Wunderground v.1.15,2013-02-23 04:50:00,
2013-02-22 21:55:00,36.9,31.3,30.07,NE,56,0.0,0.0,80,0.00,,,0.00,Wunderground v.1.15,2013-02-23 04:55:00,
2013-02-22 22:00:00,37.2,31.3,30.07,NE,56,0.0,0.0,79,0.00,,,0.00,Wunderground v.1.15,2013-02-23 05:00:00,
2013-02-22 22:05:00,37.4,30.8,30.07,NE,56,0.0,0.0,77,0.00,,,0.00,Wunderground v.1.15,2013-02-23 05:05:00,
2013-02-22 22:10:00,37.1,31.2,30.07,SE,127,0.0,0.0,79,0.00,,,0.00,Wunderground v.1.15,2013-02-23 05:10:00,
2013-02-22 22:15:00,37.1,30.9,30.07,SSE,155,0.0,0.0,78,0.00,,,0.00,Wunderground v.1.15,2013-02-23 05:15:00,
2013-02-22 22:20:00,37.1,31.2,30.08,SSE,155,0.0,0.0,79,0.00,,,0.00,Wunderground v.1.15,2013-02-23 05:20:00,
2013-02-22 22:25:00,36.8,31.2,30.07,SSE,155,0.0,0.0,80,0.00,,,0.00,Wunderground v.1.15,2013-02-23 05:25:00,
2013-02-22 22:35:00,36.6,31.0,30.07,SSE,155,0.0,0.0,80,0.00,,,0.00,Wunderground v.1.15,2013-02-23 05:35:00,
2013-02-22 22:40:00,36.5,30.6,30.07,SSE,155,0.0,0.0,79,0.00,,,0.00,Wunderground v.1.15,2013-02-23 05:40:00,
2013-02-22 22:45:00,36.3,30.1,30.07,SSE,155,0.0,0.0,78,0.00,,,0.00,Wunderground v.1.15,2013-02-23 05:45:00,
2013-02-22 22:55:00,35.9,30.0,30.07,SE,141,0.0,0.0,79,0.00,,,0.00,Wunderground v.1.15,2013-02-23 05:55:00,
2013-02-22 23:00:00,36.4,30.2,30.07,SE,141,0.0,0.0,78,0.00,,,0.00,Wunderground v.1.15,2013-02-23 06:00:00,
2013-02-22 23:05:00,36.5,30.3,30.07,SE,141,0.0,0.0,78,0.00,,,0.00,Wunderground v.1.15,2013-02-23 06:05:00,
2013-02-22 23:10:00,36.5,30.0,30.07,SE,141,0.0,0.0,77,0.00,,,0.00,Wunderground v.1.15,2013-02-23 06:10:00,
2013-02-22 23:15:00,36.6,30.1,30.07,SE,141,0.0,0.0,77,0.00,,,0.00,Wunderground v.1.15,2013-02-23 06:15:00,
2013-02-22 23:25:00,36.8,30.6,30.07,SE,141,0.0,0.0,78,0.00,,,0.00,Wunderground v.1.15,2013-02-23 06:25:00,
2013-02-22 23:35:00,36.0,30.4,30.08,SE,141,0.0,0.0,80,0.00,,,0.00,Wunderground v.1.15,2013-02-23 06:35:00,
2013-02-22 23:40:00,35.3,30.1,30.08,SE,141,0.0,0.0,81,0.00,,,0.00,Wunderground v.1.15,2013-02-23 06:40:00,
2013-02-22 23:50:00,34.7,30.1,30.08,SE,141,0.0,0.0,83,0.00,,,0.00,Wunderground v.1.15,2013-02-23 06:50:00,
2013-02-22 23:55:00,34.6,30.0,30.08,SE,141,0.0,0.0,83,0.00,,,0.00,Wunderground v.1.15,2013-02-23 06:55:00,